Time;durP1;ratioP1;P1;durP2;ratioP2;P2;SDS_P1;SDS_P2;PMS_P1;PMS_P2;Temp;Humidity;BMP_temperature;BMP_pressure;BME280_temperature;BME280_humidity;BME280_pressure;Samples;Min_cycle;Max_cycle;Signal;HPM_P1;HPM_P2
2023/06/12 00:03:49;;;;;;;;;;;11.60;99.90;;;;;;8361890;28;20258;-80
2023/06/12 00:07:55;;;;;;;;;;;11.70;99.90;;;;;;8367417;28;19916;-79
2023/06/12 00:11:56;;;;;;;;;;;11.80;99.90;;;;;;8389126;28;19920;-80
2023/06/12 00:15:56;;;;;;;;;;;12.00;99.90;;;;;;8364264;28;19913;-80
2023/06/12 00:19:57;;;;;;;;;;;12.10;99.90;;;;;;8360656;28;20384;-80
2023/06/12 00:23:57;;;;;;;;;;;12.30;99.90;;;;;;8391614;28;20304;-79
2023/06/12 00:27:58;;;;;;;;;;;12.30;99.90;;;;;;8362562;28;19913;-79
2023/06/12 00:31:58;;;;;;;;;;;12.20;99.90;;;;;;8364114;28;19931;-80
2023/06/12 00:35:59;;;;;;;;;;;12.30;99.90;;;;;;8370576;28;19923;-79
2023/06/12 00:39:59;;;;;;;;;;;12.30;99.90;;;;;;8357235;28;19928;-79
2023/06/12 00:44:00;;;;;;;;;;;12.50;99.90;;;;;;8354120;28;20294;-79
2023/06/12 00:48:01;;;;;;;;;;;12.50;99.90;;;;;;8367864;28;19913;-80
2023/06/12 00:52:01;;;;;;;;;;;12.40;99.90;;;;;;8383216;28;19916;-80
2023/06/12 00:56:02;;;;;;;;;;;12.20;99.90;;;;;;8351634;28;19917;-80
2023/06/12 01:00:05;;;;;;;;;;;12.00;99.90;;;;;;8388581;28;19912;-80
2023/06/12 01:04:09;;;;;;;;;;;12.00;99.90;;;;;;8376472;28;19919;-80
2023/06/12 01:08:10;;;;;;;;;;;12.00;99.90;;;;;;8363400;28;20295;-80
2023/06/12 01:12:11;;;;;;;;;;;11.90;99.90;;;;;;8360014;28;19912;-80
2023/06/12 01:16:12;;;;;;;;;;;11.90;99.90;;;;;;8384304;28;20008;-79
2023/06/12 01:20:12;;;;;;;;;;;11.90;99.90;;;;;;8357105;28;19917;-80
2023/06/12 01:24:31;;;;;;;;;;;11.90;99.90;;;;;;8370279;28;19943;-80
2023/06/12 01:28:33;;;;;;;;;;;12.10;99.90;;;;;;8362761;28;19920;-80
2023/06/12 01:32:37;;;;;;;;;;;12.40;99.90;;;;;;8373448;28;19909;-79
2023/06/12 01:36:41;;;;;;;;;;;12.40;99.90;;;;;;8359463;28;19916;-79
2023/06/12 01:40:42;;;;;;;;;;;12.30;99.90;;;;;;8365367;28;20027;-80
2023/06/12 01:44:42;;;;;;;;;;;12.20;99.90;;;;;;8386658;28;19913;-79
2023/06/12 01:48:43;;;;;;;;;;;12.40;99.90;;;;;;8364062;28;20019;-80
2023/06/12 01:52:43;;;;;;;;;;;12.20;99.90;;;;;;8373461;28;20270;-80
2023/06/12 01:56:44;;;;;;;;;;;12.20;99.90;;;;;;8372969;28;20384;-79
2023/06/12 02:00:44;;;;;;;;;;;11.90;99.90;;;;;;8383252;28;19917;-79
2023/06/12 02:04:45;;;;;;;;;;;11.90;99.90;;;;;;8384793;28;20007;-80
2023/06/12 02:08:45;;;;;;;;;;;11.90;99.90;;;;;;8364030;28;19986;-80
2023/06/12 02:12:46;;;;;;;;;;;11.90;99.90;;;;;;8364588;28;20294;-80
2023/06/12 02:16:47;;;;;;;;;;;11.70;99.90;;;;;;8361591;28;19924;-80
2023/06/12 02:20:49;;;;;;;;;;;11.60;99.90;;;;;;8359927;28;19995;-79
2023/06/12 02:24:50;;;;;;;;;;;11.60;99.90;;;;;;8379249;28;19913;-79
2023/06/12 02:29:09;;;;;;;;;;;11.60;99.90;;;;;;8361912;28;20003;-79
2023/06/12 02:33:13;;;;;;;;;;;11.50;99.90;;;;;;8364931;28;20427;-79
2023/06/12 02:37:14;;;;;;;;;;;11.60;99.90;;;;;;8388052;28;19912;-80
2023/06/12 02:41:14;;;;;;;;;;;11.70;99.90;;;;;;8373806;28;19982;-80
2023/06/12 02:45:15;;;;;;;;;;;11.90;99.90;;;;;;8360840;28;19913;-80
2023/06/12 02:49:16;;;;;;;;;;;11.70;99.90;;;;;;8359985;28;19969;-80
2023/06/12 02:53:16;;;;;;;;;;;11.60;99.90;;;;;;8389728;28;19920;-79
2023/06/12 02:57:16;;;;;;;;;;;11.40;99.90;;;;;;8366696;28;19927;-79
2023/06/12 03:01:20;;;;;;;;;;;11.40;99.90;;;;;;8363101;28;19924;-79
2023/06/12 03:05:20;;;;;;;;;;;11.70;99.90;;;;;;8356937;28;19943;-80
2023/06/12 03:09:21;;;;;;;;;;;11.20;99.90;;;;;;8386910;28;19915;-80
2023/06/12 03:13:23;;;;;;;;;;;11.20;99.90;;;;;;8376156;28;19956;-80
2023/06/12 03:17:24;;;;;;;;;;;11.30;99.90;;;;;;8354145;28;19913;-80
2023/06/12 03:21:24;;;;;;;;;;;11.20;99.90;;;;;;8367551;28;20297;-80
2023/06/12 03:25:25;;;;;;;;;;;11.10;99.90;;;;;;8375809;28;20190;-79
2023/06/12 03:29:25;;;;;;;;;;;11.10;99.90;;;;;;8374672;28;19960;-80
2023/06/12 03:33:26;;;;;;;;;;;11.10;99.90;;;;;;8375317;28;20038;-80
2023/06/12 03:37:28;;;;;;;;;;;11.10;99.90;;;;;;8365383;28;19915;-80
2023/06/12 03:41:29;;;;;;;;;;;11.00;99.90;;;;;;8378256;28;19986;-80
2023/06/12 03:45:30;;;;;;;;;;;11.50;99.90;;;;;;8371361;28;19954;-80
2023/06/12 03:49:30;;;;;;;;;;;11.40;99.90;;;;;;8369806;28;20300;-79
2023/06/12 03:53:31;;;;;;;;;;;11.60;99.90;;;;;;8362170;28;20330;-80
2023/06/12 03:57:31;;;;;;;;;;;12.10;99.90;;;;;;8381753;28;20012;-80
2023/06/12 04:01:32;;;;;;;;;;;12.40;99.90;;;;;;8369445;28;19931;-80
2023/06/12 04:05:33;;;;;;;;;;;12.80;99.90;;;;;;8385086;28;19940;-81
2023/06/12 04:09:33;;;;;;;;;;;13.40;99.90;;;;;;8389624;28;19908;-79
2023/06/12 04:13:34;;;;;;;;;;;13.90;99.90;;;;;;8355151;28;19916;-78
2023/06/12 04:17:34;;;;;;;;;;;14.40;99.90;;;;;;8357131;28;20296;-80
2023/06/12 04:21:35;;;;;;;;;;;14.80;99.90;;;;;;8378075;28;19959;-80
2023/06/12 04:25:36;;;;;;;;;;;15.50;99.90;;;;;;8365277;28;19912;-81
2023/06/12 04:29:37;;;;;;;;;;;16.10;99.90;;;;;;8384495;28;19921;-81
2023/06/12 04:33:38;;;;;;;;;;;16.50;99.90;;;;;;8359040;28;19921;-78
2023/06/12 04:37:38;;;;;;;;;;;16.90;99.90;;;;;;8385094;28;19921;-79
2023/06/12 04:41:40;;;;;;;;;;;17.40;99.90;;;;;;8370995;28;20431;-79
2023/06/12 04:45:44;;;;;;;;;;;17.80;99.90;;;;;;8383350;28;20314;-80
2023/06/12 04:49:47;;;;;;;;;;;19.00;99.90;;;;;;8381469;28;19919;-79
2023/06/12 04:53:48;;;;;;;;;;;19.20;99.90;;;;;;8367466;28;19908;-80
2023/06/12 04:57:52;;;;;;;;;;;19.10;99.90;;;;;;8366019;28;20023;-79
2023/06/12 05:01:52;;;;;;;;;;;19.90;99.90;;;;;;8375121;28;19920;-78
2023/06/12 05:05:53;;;;;;;;;;;20.10;99.90;;;;;;8380144;28;19908;-79
2023/06/12 05:09:53;;;;;;;;;;;20.40;99.90;;;;;;8373147;28;19932;-79
2023/06/12 05:13:55;;;;;;;;;;;20.70;99.90;;;;;;8362343;28;20464;-80
2023/06/12 05:17:55;;;;;;;;;;;20.70;99.90;;;;;;8383627;28;19913;-78
2023/06/12 05:21:56;;;;;;;;;;;21.00;99.90;;;;;;8356872;28;19919;-80
2023/06/12 05:25:56;;;;;;;;;;;20.80;99.90;;;;;;8360519;28;19952;-78
2023/06/12 05:29:57;;;;;;;;;;;21.00;99.90;;;;;;8360412;28;19909;-79
2023/06/12 05:33:57;;;;;;;;;;;21.30;99.90;;;;;;8374221;28;20347;-79
2023/06/12 05:37:57;;;;;;;;;;;21.40;99.90;;;;;;8366764;28;20305;-79
2023/06/12 05:41:58;;;;;;;;;;;21.60;99.90;;;;;;8377674;28;20046;-79
2023/06/12 05:45:58;;;;;;;;;;;21.60;99.90;;;;;;8359965;28;20434;-79
2023/06/12 05:49:59;;;;;;;;;;;21.90;99.90;;;;;;8355347;28;19909;-79
2023/06/12 05:54:00;;;;;;;;;;;22.30;99.90;;;;;;8370168;28;19909;-79
2023/06/12 05:58:00;;;;;;;;;;;22.50;99.90;;;;;;8368717;28;19908;-79
2023/06/12 06:02:01;;;;;;;;;;;23.00;99.90;;;;;;8366553;28;19913;-79
2023/06/12 06:06:01;;;;;;;;;;;23.20;99.90;;;;;;8376353;28;20095;-78
2023/06/12 06:10:04;;;;;;;;;;;23.50;99.90;;;;;;8366703;28;19915;-79
2023/06/12 06:14:04;;;;;;;;;;;24.00;99.90;;;;;;8357579;28;19954;-79
2023/06/12 06:18:06;;;;;;;;;;;23.70;99.90;;;;;;8351497;28;19908;-79
2023/06/12 06:22:07;;;;;;;;;;;23.40;99.90;;;;;;8379395;28;19920;-79
2023/06/12 06:26:09;;;;;;;;;;;23.60;99.90;;;;;;8372922;28;20232;-80
2023/06/12 06:30:09;;;;;;;;;;;23.90;99.90;;;;;;8369668;28;20003;-79
2023/06/12 06:34:10;;;;;;;;;;;23.10;99.90;;;;;;8358713;28;19908;-79
2023/06/12 06:38:11;;;;;;;;;;;23.20;99.90;;;;;;8382708;28;20300;-79
2023/06/12 06:42:11;;;;;;;;;;;23.30;99.90;;;;;;8374392;28;19916;-78
2023/06/12 06:46:12;;;;;;;;;;;23.30;99.90;;;;;;8353795;28;19999;-79
2023/06/12 06:50:12;;;;;;;;;;;23.50;99.90;;;;;;8367875;28;19951;-78
2023/06/12 06:54:13;;;;;;;;;;;23.40;99.90;;;;;;8386677;28;19912;-79
2023/06/12 06:58:13;;;;;;;;;;;23.60;99.90;;;;;;8388460;28;19939;-79
2023/06/12 07:02:14;;;;;;;;;;;24.70;99.90;;;;;;8368594;28;19919;-79
2023/06/12 07:06:14;;;;;;;;;;;24.70;99.90;;;;;;8366046;28;19909;-79
2023/06/12 07:10:15;;;;;;;;;;;24.90;99.90;;;;;;8364484;28;20145;-79
2023/06/12 07:14:16;;;;;;;;;;;25.40;99.90;;;;;;8372496;28;20405;-79
2023/06/12 07:18:16;;;;;;;;;;;25.70;98.90;;;;;;8384472;28;20439;-80
2023/06/12 07:22:17;;;;;;;;;;;25.80;97.40;;;;;;8361379;28;19964;-80
2023/06/12 07:26:17;;;;;;;;;;;25.60;95.90;;;;;;8377099;28;20277;-78
2023/06/12 07:30:18;;;;;;;;;;;25.00;96.50;;;;;;8371533;28;19913;-79
2023/06/12 07:34:18;;;;;;;;;;;25.20;97.80;;;;;;8368835;28;19965;-77
2023/06/12 07:38:19;;;;;;;;;;;25.20;96.30;;;;;;8385084;28;19920;-79
2023/06/12 07:42:20;;;;;;;;;;;25.30;95.00;;;;;;8358769;28;19927;-77
2023/06/12 07:46:20;;;;;;;;;;;25.00;94.10;;;;;;8353533;28;19916;-78
2023/06/12 07:50:21;;;;;;;;;;;24.30;95.90;;;;;;8368943;28;19909;-79
2023/06/12 07:54:21;;;;;;;;;;;24.80;93.90;;;;;;8364162;28;19912;-78
2023/06/12 07:58:22;;;;;;;;;;;24.90;91.50;;;;;;8359635;28;20381;-78
2023/06/12 08:02:23;;;;;;;;;;;24.70;94.50;;;;;;8385315;28;19963;-78
2023/06/12 08:06:24;;;;;;;;;;;25.30;94.20;;;;;;8364006;28;19908;-78
2023/06/12 08:10:25;;;;;;;;;;;24.40;92.30;;;;;;8381373;28;20288;-78
2023/06/12 08:14:25;;;;;;;;;;;24.60;91.20;;;;;;8364536;28;19920;-78
2023/06/12 08:18:26;;;;;;;;;;;24.90;91.10;;;;;;8367696;28;19909;-79
2023/06/12 08:22:26;;;;;;;;;;;25.50;90.80;;;;;;8373079;28;20324;-77
2023/06/12 08:26:27;;;;;;;;;;;25.80;85.00;;;;;;8363205;28;20330;-77
2023/06/12 08:30:27;;;;;;;;;;;25.10;87.10;;;;;;8380387;28;19909;-78
2023/06/12 08:34:28;;;;;;;;;;;25.70;87.80;;;;;;8368383;28;19920;-78
2023/06/12 08:38:28;;;;;;;;;;;25.30;87.20;;;;;;8373865;28;19917;-78
2023/06/12 08:42:30;;;;;;;;;;;24.80;86.90;;;;;;8367070;28;19973;-79
2023/06/12 08:46:31;;;;;;;;;;;24.60;81.70;;;;;;8356811;28;20087;-76
2023/06/12 08:50:33;;;;;;;;;;;24.10;86.40;;;;;;8379295;28;19916;-78
2023/06/12 08:54:34;;;;;;;;;;;23.90;87.20;;;;;;8364164;28;19962;-77
2023/06/12 08:58:34;;;;;;;;;;;24.10;83.80;;;;;;8380068;28;19913;-77
2023/06/12 09:02:35;;;;;;;;;;;24.10;89.40;;;;;;8354166;28;19912;-79
2023/06/12 09:06:37;;;;;;;;;;;25.00;86.00;;;;;;8367658;28;20368;-78
2023/06/12 09:10:38;;;;;;;;;;;25.40;82.30;;;;;;8368593;28;19943;-78
2023/06/12 09:14:39;;;;;;;;;;;24.90;86.20;;;;;;8349957;28;19916;-78
2023/06/12 09:18:50;;;;;;;;;;;25.10;82.70;;;;;;8358623;28;20387;-79
2023/06/12 09:22:53;;;;;;;;;;;25.70;78.40;;;;;;8385169;28;19912;-78
2023/06/12 09:26:56;;;;;;;;;;;26.60;75.00;;;;;;8372435;28;20373;-78
2023/06/12 09:30:57;;;;;;;;;;;26.80;73.10;;;;;;8357558;28;19916;-78
2023/06/12 09:34:57;;;;;;;;;;;26.50;73.70;;;;;;8353767;28;19909;-78
2023/06/12 09:38:58;;;;;;;;;;;26.60;71.20;;;;;;8360605;28;20477;-78
2023/06/12 09:43:03;;;;;;;;;;;26.70;68.10;;;;;;8378311;28;19943;-78
2023/06/12 09:47:04;;;;;;;;;;;26.80;70.70;;;;;;8368464;28;19915;-78
2023/06/12 09:51:06;;;;;;;;;;;27.10;71.90;;;;;;8367175;28;20246;-79
2023/06/12 09:55:07;;;;;;;;;;;26.50;70.10;;;;;;8379676;28;19969;-78
2023/06/12 09:59:08;;;;;;;;;;;25.40;69.70;;;;;;8351949;28;19909;-78
2023/06/12 10:03:10;;;;;;;;;;;25.50;71.00;;;;;;8360579;28;20266;-78
2023/06/12 10:07:14;;;;;;;;;;;26.50;72.10;;;;;;8363222;28;19948;-79
2023/06/12 10:11:15;;;;;;;;;;;26.90;66.60;;;;;;8348397;28;20106;-79
2023/06/12 10:15:15;;;;;;;;;;;26.70;65.60;;;;;;8359870;28;20350;-78
2023/06/12 10:19:16;;;;;;;;;;;26.50;65.70;;;;;;8360220;28;19921;-79
2023/06/12 10:23:17;;;;;;;;;;;26.50;73.70;;;;;;8359770;28;20287;-79
2023/06/12 10:27:18;;;;;;;;;;;26.00;69.20;;;;;;8359024;28;20296;-79
2023/06/12 10:31:19;;;;;;;;;;;25.70;72.90;;;;;;8378714;28;20320;-78
2023/06/12 10:35:30;;;;;;;;;;;25.40;72.70;;;;;;8379039;28;20461;-77
2023/06/12 10:39:30;;;;;;;;;;;24.90;75.40;;;;;;8371570;28;20020;-78
2023/06/12 10:43:31;;;;;;;;;;;25.30;74.80;;;;;;8365587;28;19917;-80
2023/06/12 10:47:31;;;;;;;;;;;25.90;72.30;;;;;;8354297;28;19908;-79
2023/06/12 10:51:33;;;;;;;;;;;26.60;70.10;;;;;;8368253;28;19913;-77
2023/06/12 10:55:35;;;;;;;;;;;26.20;71.10;;;;;;8360567;28;19909;-77
2023/06/12 10:59:35;;;;;;;;;;;26.80;66.00;;;;;;8385022;28;19914;-78
2023/06/12 11:03:45;;;;;;;;;;;27.50;69.70;;;;;;8371072;28;19908;-78
2023/06/12 11:07:46;;;;;;;;;;;28.50;70.00;;;;;;8391067;28;20003;-79
2023/06/12 11:11:50;;;;;;;;;;;28.80;61.00;;;;;;8373660;28;19947;-77
2023/06/12 11:15:51;;;;;;;;;;;28.40;62.40;;;;;;8365432;28;20467;-77
2023/06/12 11:19:57;;;;;;;;;;;28.00;65.80;;;;;;8389627;28;19913;-79
2023/06/12 11:24:03;;;;;;;;;;;27.90;65.00;;;;;;8373088;28;19916;-78
2023/06/12 11:28:05;;;;;;;;;;;28.70;67.60;;;;;;8362633;28;19909;-79
2023/06/12 11:32:05;;;;;;;;;;;30.40;66.20;;;;;;8351215;28;19908;-78
2023/06/12 11:36:06;;;;;;;;;;;29.50;58.10;;;;;;8358618;28;19909;-77
2023/06/12 11:40:11;;;;;;;;;;;28.70;61.40;;;;;;8352029;28;19925;-77
2023/06/12 11:44:14;;;;;;;;;;;28.40;64.80;;;;;;8362105;28;20377;-80
2023/06/12 11:48:16;;;;;;;;;;;29.50;65.10;;;;;;8351519;28;20769;-78
2023/06/12 11:52:17;;;;;;;;;;;28.50;66.70;;;;;;8352459;28;19948;-78
2023/06/12 11:56:17;;;;;;;;;;;28.90;63.20;;;;;;8376182;28;19935;-79
2023/06/12 12:00:21;;;;;;;;;;;29.50;62.10;;;;;;8358258;28;19963;-78
2023/06/12 12:04:21;;;;;;;;;;;30.80;60.10;;;;;;8385706;28;20461;-77
2023/06/12 12:08:24;;;;;;;;;;;30.50;54.30;;;;;;8363052;28;20003;-77
2023/06/12 12:12:24;;;;;;;;;;;29.70;55.50;;;;;;8358510;28;19909;-78
2023/06/12 12:16:26;;;;;;;;;;;29.00;56.70;;;;;;8370982;28;20019;-80
2023/06/12 12:20:27;;;;;;;;;;;30.00;55.40;;;;;;8358063;28;19967;-78
2023/06/12 12:24:34;;;;;;;;;;;29.90;57.90;;;;;;8362452;28;19944;-78
2023/06/12 12:28:35;;;;;;;;;;;31.00;53.40;;;;;;8369352;28;19956;-79
2023/06/12 12:32:35;;;;;;;;;;;31.40;54.80;;;;;;8369691;28;19908;-79
2023/06/12 12:36:38;;;;;;;;;;;32.20;51.00;;;;;;8390239;28;19909;-79
2023/06/12 12:40:39;;;;;;;;;;;31.40;51.90;;;;;;8359006;28;19947;-79
2023/06/12 12:44:39;;;;;;;;;;;31.00;52.20;;;;;;8361372;28;19920;-78
2023/06/12 12:48:40;;;;;;;;;;;31.70;50.80;;;;;;8374225;28;19956;-79
2023/06/12 12:52:41;;;;;;;;;;;30.80;52.90;;;;;;8363890;28;19908;-78
2023/06/12 12:56:41;;;;;;;;;;;29.90;52.30;;;;;;8368626;28;19909;-79
2023/06/12 13:00:42;;;;;;;;;;;30.60;54.50;;;;;;8386089;28;19974;-78
2023/06/12 13:04:42;;;;;;;;;;;31.80;51.50;;;;;;8344860;28;19912;-79
2023/06/12 13:08:43;;;;;;;;;;;31.20;52.40;;;;;;8359833;28;19909;-79
2023/06/12 13:12:44;;;;;;;;;;;32.70;51.30;;;;;;8382408;28;20365;-80
2023/06/12 13:16:45;;;;;;;;;;;32.10;48.70;;;;;;8361001;28;19915;-79
2023/06/12 13:20:45;;;;;;;;;;;32.00;51.70;;;;;;8350386;28;20293;-79
2023/06/12 13:24:46;;;;;;;;;;;33.80;48.20;;;;;;8375461;28;19909;-80
2023/06/12 13:28:46;;;;;;;;;;;34.50;47.00;;;;;;8384386;28;19912;-78
2023/06/12 13:32:47;;;;;;;;;;;32.80;45.70;;;;;;8381913;28;19920;-79
2023/06/12 13:36:48;;;;;;;;;;;32.40;48.20;;;;;;8379331;28;20403;-78
2023/06/12 13:40:50;;;;;;;;;;;31.90;45.50;;;;;;8349897;28;19921;-79
2023/06/12 13:44:50;;;;;;;;;;;32.20;47.90;;;;;;8359161;28;19962;-79
2023/06/12 13:48:51;;;;;;;;;;;33.20;46.90;;;;;;8353331;28;19909;-79
2023/06/12 13:52:51;;;;;;;;;;;34.80;46.90;;;;;;8352086;28;20003;-78
2023/06/12 13:56:52;;;;;;;;;;;36.30;41.80;;;;;;8360875;28;20400;-81
2023/06/12 14:00:53;;;;;;;;;;;35.30;42.40;;;;;;8382513;28;19956;-78
2023/06/12 14:04:55;;;;;;;;;;;34.50;43.50;;;;;;8345551;28;19913;-79
2023/06/12 14:08:56;;;;;;;;;;;34.60;43.70;;;;;;8356543;28;19952;-79
2023/06/12 14:12:56;;;;;;;;;;;34.60;44.10;;;;;;8367167;28;19908;-78
2023/06/12 14:16:57;;;;;;;;;;;33.10;45.60;;;;;;8351820;28;19909;-78
2023/06/12 14:21:01;;;;;;;;;;;33.00;45.90;;;;;;8351726;28;19917;-77
2023/06/12 14:25:01;;;;;;;;;;;32.30;45.90;;;;;;8355712;28;20308;-80
2023/06/12 14:29:02;;;;;;;;;;;32.60;45.50;;;;;;8354561;28;20003;-78
2023/06/12 14:33:03;;;;;;;;;;;32.70;43.70;;;;;;8389298;28;19920;-78
2023/06/12 14:37:03;;;;;;;;;;;33.40;43.90;;;;;;8369165;28;19916;-78
2023/06/12 14:41:04;;;;;;;;;;;32.90;43.80;;;;;;8386618;28;19920;-79
2023/06/12 14:45:04;;;;;;;;;;;33.50;45.30;;;;;;8390876;28;19912;-78
2023/06/12 14:49:05;;;;;;;;;;;32.70;44.40;;;;;;8355332;28;19912;-78
2023/06/12 14:53:05;;;;;;;;;;;32.20;45.10;;;;;;8361235;28;19960;-78
2023/06/12 14:57:06;;;;;;;;;;;32.40;46.50;;;;;;8360642;28;19965;-77
2023/06/12 15:01:07;;;;;;;;;;;33.90;44.10;;;;;;8375787;28;19916;-76
2023/06/12 15:05:07;;;;;;;;;;;33.10;43.00;;;;;;8367728;28;19917;-77
2023/06/12 15:09:08;;;;;;;;;;;32.90;43.70;;;;;;8376166;28;19920;-79
2023/06/12 15:13:08;;;;;;;;;;;33.60;42.30;;;;;;8386336;28;19963;-78
2023/06/12 15:17:09;;;;;;;;;;;33.20;42.90;;;;;;8390007;28;19920;-77
2023/06/12 15:21:10;;;;;;;;;;;33.00;43.70;;;;;;8383051;28;19963;-78
2023/06/12 15:25:10;;;;;;;;;;;33.70;42.90;;;;;;8369062;28;19916;-77
2023/06/12 15:29:11;;;;;;;;;;;32.10;43.80;;;;;;8370985;28;19912;-76
2023/06/12 15:33:11;;;;;;;;;;;30.80;45.20;;;;;;8372385;28;19912;-78
2023/06/12 15:37:15;;;;;;;;;;;30.10;46.40;;;;;;8388491;28;19976;-77
2023/06/12 15:41:16;;;;;;;;;;;30.00;49.20;;;;;;8370054;28;19921;-78
2023/06/12 15:45:16;;;;;;;;;;;29.80;47.10;;;;;;8393625;28;19912;-76
2023/06/12 15:49:17;;;;;;;;;;;28.20;48.90;;;;;;8385647;28;19952;-78
2023/06/12 15:53:17;;;;;;;;;;;27.60;50.40;;;;;;8392432;28;19919;-77
2023/06/12 15:57:18;;;;;;;;;;;26.80;51.50;;;;;;8370918;28;20005;-78
2023/06/12 16:01:18;;;;;;;;;;;26.10;54.20;;;;;;8366641;28;19994;-77
2023/06/12 16:05:19;;;;;;;;;;;25.70;53.70;;;;;;8387016;28;19923;-78
2023/06/12 16:09:19;;;;;;;;;;;25.70;53.70;;;;;;8401342;28;20304;-78
2023/06/12 16:13:20;;;;;;;;;;;25.60;53.90;;;;;;8386999;28;19924;-76
2023/06/12 16:17:20;;;;;;;;;;;25.70;54.70;;;;;;8401589;28;20304;-77
2023/06/12 16:21:21;;;;;;;;;;;25.70;54.40;;;;;;8373573;28;19970;-77
2023/06/12 16:25:21;;;;;;;;;;;25.70;55.30;;;;;;8361793;28;20007;-77
2023/06/12 16:29:22;;;;;;;;;;;25.50;55.50;;;;;;8384860;28;20016;-76
2023/06/12 16:33:22;;;;;;;;;;;25.20;57.00;;;;;;8371957;28;19920;-77
2023/06/12 16:37:23;;;;;;;;;;;25.30;55.90;;;;;;8363198;28;19916;-79
2023/06/12 16:41:23;;;;;;;;;;;25.40;55.80;;;;;;8382274;28;19924;-78
2023/06/12 16:45:24;;;;;;;;;;;25.20;57.00;;;;;;8361444;28;20003;-77
2023/06/12 16:49:24;;;;;;;;;;;25.30;56.80;;;;;;8384698;28;19924;-79
2023/06/12 16:53:25;;;;;;;;;;;25.00;54.80;;;;;;8352263;28;20292;-79
2023/06/12 16:57:26;;;;;;;;;;;24.80;54.60;;;;;;8380832;28;19920;-78
2023/06/12 17:01:26;;;;;;;;;;;24.80;55.00;;;;;;8366448;28;19916;-78
2023/06/12 17:05:27;;;;;;;;;;;24.50;56.60;;;;;;8358057;28;20640;-79
2023/06/12 17:09:27;;;;;;;;;;;24.30;58.10;;;;;;8360553;28;20377;-77
2023/06/12 17:13:28;;;;;;;;;;;24.20;57.00;;;;;;8384491;28;19917;-80
2023/06/12 17:17:28;;;;;;;;;;;24.00;58.60;;;;;;8366070;28;19921;-79
2023/06/12 17:21:29;;;;;;;;;;;23.70;57.00;;;;;;8367992;28;20019;-81
2023/06/12 17:25:29;;;;;;;;;;;23.50;58.50;;;;;;8363180;28;20454;-79
2023/06/12 17:29:30;;;;;;;;;;;23.40;59.10;;;;;;8375810;28;19920;-79
2023/06/12 17:33:31;;;;;;;;;;;23.20;58.20;;;;;;8345942;28;19971;-78
2023/06/12 17:37:34;;;;;;;;;;;23.00;59.60;;;;;;8373854;28;21363;-79
2023/06/12 17:41:36;;;;;;;;;;;23.00;57.40;;;;;;8359236;28;19924;-80
2023/06/12 17:45:37;;;;;;;;;;;22.90;57.00;;;;;;8368067;28;20003;-79
2023/06/12 17:49:37;;;;;;;;;;;22.80;57.60;;;;;;8393745;22;19915;-82
2023/06/12 17:53:39;;;;;;;;;;;22.80;59.10;;;;;;8400287;28;19970;-81
2023/06/12 17:57:40;;;;;;;;;;;22.70;58.40;;;;;;8405277;28;20003;-80
2023/06/12 18:01:40;;;;;;;;;;;22.70;58.40;;;;;;8378977;28;20494;-82
2023/06/12 18:05:40;;;;;;;;;;;22.60;58.50;;;;;;8365097;28;19913;-81
2023/06/12 18:09:41;;;;;;;;;;;22.60;59.00;;;;;;8367064;28;19913;-81
2023/06/12 18:13:41;;;;;;;;;;;22.40;58.00;;;;;;8357113;28;20552;-80
2023/06/12 18:17:42;;;;;;;;;;;22.50;59.80;;;;;;8358731;28;19914;-81
2023/06/12 18:21:42;;;;;;;;;;;22.20;60.90;;;;;;8375671;28;19916;-82
2023/06/12 18:25:43;;;;;;;;;;;21.60;61.40;;;;;;8369277;28;19912;-80
2023/06/12 18:29:44;;;;;;;;;;;21.50;61.20;;;;;;8366443;28;19923;-82
2023/06/12 18:33:44;;;;;;;;;;;21.50;61.60;;;;;;8383043;28;19912;-81
2023/06/12 18:37:45;;;;;;;;;;;21.10;63.50;;;;;;8367871;28;19963;-81
2023/06/12 18:41:45;;;;;;;;;;;20.90;64.60;;;;;;8375077;28;19916;-82
2023/06/12 18:45:46;;;;;;;;;;;20.70;64.20;;;;;;8367907;28;19915;-81
2023/06/12 18:49:47;;;;;;;;;;;21.10;65.40;;;;;;8390545;28;20438;-81
2023/06/12 18:53:47;;;;;;;;;;;20.40;65.30;;;;;;8370988;28;19922;-81
2023/06/12 18:57:48;;;;;;;;;;;20.20;66.90;;;;;;8363789;28;19912;-81
2023/06/12 19:01:48;;;;;;;;;;;20.30;69.00;;;;;;8379104;28;20380;-80
2023/06/12 19:05:50;;;;;;;;;;;19.80;68.30;;;;;;8371313;28;19913;-81
2023/06/12 19:09:52;;;;;;;;;;;19.70;70.50;;;;;;8372761;28;19912;-82
2023/06/12 19:13:53;;;;;;;;;;;19.60;71.40;;;;;;8370757;28;19924;-82
2023/06/12 19:17:56;;;;;;;;;;;19.00;71.80;;;;;;8383575;28;20529;-81
2023/06/12 19:21:56;;;;;;;;;;;18.60;72.90;;;;;;8380577;28;19921;-81
2023/06/12 19:25:57;;;;;;;;;;;18.60;73.30;;;;;;8370230;28;20013;-82
2023/06/12 19:29:57;;;;;;;;;;;18.40;74.20;;;;;;8400323;28;19912;-81
2023/06/12 19:33:59;;;;;;;;;;;18.10;75.60;;;;;;8370972;28;19908;-81
2023/06/12 19:38:00;;;;;;;;;;;17.60;76.60;;;;;;8384762;28;20419;-81
2023/06/12 19:42:00;;;;;;;;;;;17.90;77.30;;;;;;8379310;28;19916;-82
2023/06/12 19:46:01;;;;;;;;;;;17.50;78.80;;;;;;8379203;28;19987;-82
2023/06/12 19:50:02;;;;;;;;;;;17.30;80.40;;;;;;8398813;28;19966;-82
2023/06/12 19:54:04;;;;;;;;;;;17.10;81.20;;;;;;8377224;28;19927;-81
2023/06/12 19:58:04;;;;;;;;;;;16.90;82.10;;;;;;8397023;28;19974;-81
2023/06/12 20:02:05;;;;;;;;;;;16.70;83.60;;;;;;8372557;28;19931;-81
2023/06/12 20:06:08;;;;;;;;;;;16.40;85.70;;;;;;8372116;28;20281;-81
2023/06/12 20:10:09;;;;;;;;;;;16.40;88.00;;;;;;8400880;28;20473;-81
2023/06/12 20:14:10;;;;;;;;;;;15.90;90.20;;;;;;8380383;28;19913;-79
2023/06/12 20:18:15;;;;;;;;;;;15.70;89.60;;;;;;8398622;28;19970;-81
2023/06/12 20:22:16;;;;;;;;;;;16.50;90.20;;;;;;8385272;28;19916;-82
2023/06/12 20:26:19;;;;;;;;;;;16.40;90.70;;;;;;8384396;28;20648;-81
2023/06/12 20:30:20;;;;;;;;;;;15.60;91.30;;;;;;8386566;28;19919;-81
2023/06/12 20:34:20;;;;;;;;;;;14.70;91.90;;;;;;8382947;28;19912;-81
2023/06/12 20:38:21;;;;;;;;;;;15.20;92.00;;;;;;8378191;28;19913;-81
2023/06/12 20:42:22;;;;;;;;;;;15.10;92.30;;;;;;8374277;28;19912;-81
2023/06/12 20:46:22;;;;;;;;;;;15.20;92.70;;;;;;8395354;28;20353;-80
2023/06/12 20:50:23;;;;;;;;;;;15.40;93.90;;;;;;8395169;28;20019;-80
2023/06/12 20:54:23;;;;;;;;;;;14.60;94.10;;;;;;8388251;28;19916;-81
2023/06/12 20:58:24;;;;;;;;;;;14.50;95.20;;;;;;8374995;28;19916;-80
2023/06/12 21:02:24;;;;;;;;;;;14.30;96.20;;;;;;8380602;28;19928;-81
2023/06/12 21:06:25;;;;;;;;;;;14.70;96.50;;;;;;8367626;28;20363;-78
2023/06/12 21:10:25;;;;;;;;;;;14.30;96.80;;;;;;8363501;28;20380;-80
2023/06/12 21:14:26;;;;;;;;;;;14.40;97.30;;;;;;8365041;28;19955;-79
2023/06/12 21:18:26;;;;;;;;;;;14.10;98.00;;;;;;8382668;28;20365;-79
2023/06/12 21:22:37;;;;;;;;;;;13.90;99.60;;;;;;8361144;28;19923;-80
2023/06/12 21:26:37;;;;;;;;;;;13.60;99.90;;;;;;8382975;28;19944;-79
2023/06/12 21:30:38;;;;;;;;;;;13.60;99.90;;;;;;8362351;28;19920;-78
2023/06/12 21:34:38;;;;;;;;;;;13.50;99.90;;;;;;8363590;28;19931;-78
2023/06/12 21:38:39;;;;;;;;;;;13.80;99.90;;;;;;8365246;28;20351;-80
2023/06/12 21:42:39;;;;;;;;;;;13.20;99.90;;;;;;8382537;28;19919;-78
2023/06/12 21:46:40;;;;;;;;;;;13.70;99.90;;;;;;8363433;28;19935;-79
2023/06/12 21:50:40;;;;;;;;;;;14.00;99.80;;;;;;8369142;28;19916;-79
2023/06/12 21:54:41;;;;;;;;;;;14.20;99.90;;;;;;8367658;28;19969;-80
2023/06/12 21:58:41;;;;;;;;;;;13.60;99.90;;;;;;8387431;28;19930;-79
2023/06/12 22:02:42;;;;;;;;;;;13.90;99.90;;;;;;8362548;28;19978;-79
2023/06/12 22:06:43;;;;;;;;;;;13.50;99.90;;;;;;8366846;28;19917;-79
2023/06/12 22:10:43;;;;;;;;;;;13.60;99.90;;;;;;8362822;28;19920;-79
2023/06/12 22:14:44;;;;;;;;;;;13.90;99.90;;;;;;8356055;28;19920;-79
2023/06/12 22:18:44;;;;;;;;;;;13.70;99.90;;;;;;8378545;28;20496;-79
2023/06/12 22:22:45;;;;;;;;;;;14.00;99.40;;;;;;8362695;28;19995;-80
2023/06/12 22:26:45;;;;;;;;;;;14.20;99.20;;;;;;8369739;28;19915;-80
2023/06/12 22:30:49;;;;;;;;;;;13.60;99.20;;;;;;8367988;28;19913;-79
2023/06/12 22:34:51;;;;;;;;;;;14.00;99.40;;;;;;8367352;28;19920;-80
2023/06/12 22:38:52;;;;;;;;;;;14.00;99.40;;;;;;8384864;28;20007;-80
2023/06/12 22:42:52;;;;;;;;;;;13.80;99.50;;;;;;8372972;28;19923;-80
2023/06/12 22:46:53;;;;;;;;;;;14.30;99.40;;;;;;8377512;28;19956;-79
2023/06/12 22:50:53;;;;;;;;;;;13.90;99.30;;;;;;8364540;28;19987;-79
2023/06/12 22:54:56;;;;;;;;;;;14.00;99.20;;;;;;8386258;28;19913;-80
2023/06/12 22:58:56;;;;;;;;;;;13.90;99.80;;;;;;8389226;28;20390;-78
2023/06/12 23:02:57;;;;;;;;;;;13.70;99.90;;;;;;8358459;28;19921;-80
2023/06/12 23:06:58;;;;;;;;;;;13.70;99.90;;;;;;8384481;28;19974;-79
2023/06/12 23:10:59;;;;;;;;;;;13.60;99.90;;;;;;8366480;28;20369;-80
2023/06/12 23:14:59;;;;;;;;;;;13.40;99.90;;;;;;8385822;28;20008;-80
2023/06/12 23:19:02;;;;;;;;;;;13.50;99.90;;;;;;8356394;28;19909;-80
2023/06/12 23:23:03;;;;;;;;;;;13.70;99.90;;;;;;8374924;28;19917;-80